Time;durP1;ratioP1;P1;durP2;ratioP2;P2;SDS_P1;SDS_P2;PMS_P1;PMS_P2;Temp;Humidity;BMP_temperature;BMP_pressure;BME280_temperature;BME280_humidity;BME280_pressure;Samples;Min_cycle;Max_cycle;Signal;HPM_P1;HPM_P2
2022/10/28 00:01:11;;;;;;;3.90;3.60;;;12.00;99.90;;;;;;7378240;19;20850;-75
2022/10/28 00:03:41;;;;;;;3.70;3.40;;;12.00;99.90;;;;;;7377456;19;20440;-75
2022/10/28 00:06:28;;;;;;;5.72;4.72;;;12.00;99.90;;;;;;7376232;19;21076;-75
2022/10/28 00:08:54;;;;;;;4.13;3.72;;;11.90;99.90;;;;;;7273879;19;2004465;-75
2022/10/28 00:11:28;;;;;;;4.32;3.88;;;11.90;99.90;;;;;;7375646;19;20324;-75
2022/10/28 00:13:55;;;;;;;3.80;3.30;;;11.90;99.90;;;;;;7376047;19;20862;-75
2022/10/28 00:16:23;;;;;;;4.00;3.60;;;11.90;99.90;;;;;;7365826;19;20413;-75
2022/10/28 00:18:51;;;;;;;5.25;4.40;;;11.90;99.90;;;;;;7372106;19;20332;-75
2022/10/28 00:21:18;;;;;;;5.78;4.80;;;11.90;99.90;;;;;;7372702;19;20312;-75
2022/10/28 00:23:44;;;;;;;5.18;4.15;;;11.90;99.90;;;;;;7374903;19;20307;-75
2022/10/28 00:26:15;;;;;;;4.70;4.10;;;12.00;99.90;;;;;;7376735;19;20859;-75
2022/10/28 00:28:46;;;;;;;5.10;4.10;;;12.00;99.90;;;;;;7374737;19;20364;-75
2022/10/28 00:31:12;;;;;;;4.88;3.85;;;12.10;99.90;;;;;;7374337;19;20415;-75
2022/10/28 00:33:37;;;;;;;4.00;3.55;;;12.10;99.90;;;;;;7373373;19;20854;-75
2022/10/28 00:36:14;;;;;;;5.43;3.33;;;12.10;99.90;;;;;;7375787;19;20325;-75
2022/10/28 00:38:40;;;;;;;4.40;4.00;;;12.10;99.90;;;;;;7374394;19;20313;-75
2022/10/28 00:41:05;;;;;;;3.85;3.50;;;12.10;99.90;;;;;;7375457;19;20297;-75
2022/10/28 00:43:42;;;;;;;3.60;3.30;;;12.10;99.90;;;;;;7373719;19;20366;-75
2022/10/28 00:46:17;;;;;;;5.05;4.30;;;12.10;99.90;;;;;;7374452;19;20693;-75
2022/10/28 00:48:43;;;;;;;4.82;3.92;;;12.10;99.90;;;;;;7272263;19;2004514;-75
2022/10/28 00:51:09;;;;;;;5.78;4.30;;;12.20;99.90;;;;;;7375859;19;20325;-74
2022/10/28 00:53:35;;;;;;;5.67;3.93;;;12.20;99.90;;;;;;7374279;19;20333;-75
2022/10/28 00:56:01;;;;;;;4.50;3.75;;;12.20;99.90;;;;;;7375668;19;20317;-75
2022/10/28 00:58:26;;;;;;;4.77;4.07;;;12.20;99.90;;;;;;7372666;19;20356;-75
2022/10/28 01:00:52;;;;;;;4.88;4.10;;;12.20;99.90;;;;;;7373959;19;20317;-75
2022/10/28 01:03:18;;;;;;;4.93;4.43;;;12.30;99.90;;;;;;7373722;19;20341;-75
2022/10/28 01:05:45;;;;;;;4.40;4.00;;;12.30;99.90;;;;;;7373843;19;20321;-75
2022/10/28 01:08:10;;;;;;;4.18;3.63;;;12.30;99.90;;;;;;7373495;19;20748;-75
2022/10/28 01:11:07;;;;;;;4.83;4.20;;;12.40;99.90;;;;;;7373365;19;20376;-75
2022/10/28 01:13:56;;;;;;;6.00;4.45;;;12.30;99.90;;;;;;7270862;19;2020329;-75
2022/10/28 01:16:52;;;;;;;4.57;4.10;;;12.30;99.90;;;;;;7271693;19;2020063;-76
2022/10/28 01:19:30;;;;;;;5.22;4.07;;;12.40;99.90;;;;;;7270365;19;2004302;-75
2022/10/28 01:22:14;;;;;;;4.72;3.60;;;12.40;99.90;;;;;;7372505;19;20324;-75
2022/10/28 01:25:13;;;;;;;4.30;3.80;;;12.30;99.90;;;;;;7372362;19;20843;-75
2022/10/28 01:27:54;;;;;;;3.53;3.20;;;12.30;99.90;;;;;;7269933;19;2019757;-75
2022/10/28 01:30:21;;;;;;;4.55;3.13;;;12.30;99.90;;;;;;7269598;19;2020166;-75
2022/10/28 01:33:11;;;;;;;3.55;3.25;;;12.30;99.90;;;;;;7372424;19;20316;-75
2022/10/28 01:36:00;;;;;;;4.20;3.23;;;12.20;99.90;;;;;;7374611;19;20308;-75
2022/10/28 01:38:47;;;;;;;3.80;3.50;;;12.30;99.90;;;;;;7269714;19;2019796;-75
2022/10/28 01:41:33;;;;;;;3.30;3.00;;;12.20;99.90;;;;;;7270786;19;2019908;-75
2022/10/28 01:44:19;;;;;;;3.72;3.22;;;12.20;99.90;;;;;;7373041;19;20403;-75
2022/10/28 01:46:48;;;;;;;3.55;3.17;;;12.20;99.90;;;;;;7270477;19;2019453;-75
2022/10/28 01:49:51;;;;;;;3.75;3.30;;;12.30;99.90;;;;;;7372319;19;20878;-75
2022/10/28 01:52:19;;;;;;;3.78;3.45;;;12.30;99.90;;;;;;7268432;19;2019849;-76
2022/10/28 01:54:46;;;;;;;3.28;2.97;;;12.30;99.90;;;;;;7374162;19;20385;-75
2022/10/28 01:57:12;;;;;;;3.67;3.28;;;12.20;99.90;;;;;;7381234;19;20354;-75
2022/10/28 01:59:37;;;;;;;3.43;3.13;;;12.30;99.90;;;;;;7378398;19;20324;-75
2022/10/28 02:02:03;;;;;;;4.05;3.05;;;12.30;99.90;;;;;;7379245;19;20355;-75
2022/10/28 02:04:28;;;;;;;3.30;3.00;;;12.30;99.90;;;;;;7379056;19;20352;-75
2022/10/28 02:06:55;;;;;;;3.80;3.23;;;12.30;99.90;;;;;;7379929;19;20774;-75
2022/10/28 02:09:31;;;;;;;3.45;3.10;;;12.40;99.90;;;;;;7378793;19;20308;-77
2022/10/28 02:12:17;;;;;;;3.27;2.80;;;12.40;99.90;;;;;;7381742;19;20316;-77
2022/10/28 02:15:07;;;;;;;3.47;3.17;;;12.40;99.90;;;;;;7280936;19;2004358;-75
2022/10/28 02:18:05;;;;;;;3.57;3.17;;;12.40;99.90;;;;;;7383680;19;20308;-75
2022/10/28 02:20:44;;;;;;;3.88;3.20;;;12.40;99.90;;;;;;7284257;19;2019938;-76
2022/10/28 02:23:13;;;;;;;3.83;3.17;;;12.40;99.90;;;;;;7380109;19;20878;-76
2022/10/28 02:25:42;;;;;;;3.72;3.30;;;12.40;99.90;;;;;;7379663;19;21206;-75
2022/10/28 02:28:09;;;;;;;3.25;2.95;;;12.40;99.90;;;;;;7378062;19;21634;-75
2022/10/28 02:30:45;;;;;;;3.27;2.97;;;12.40;99.90;;;;;;7379917;19;20315;-75
2022/10/28 02:33:11;;;;;;;4.53;3.80;;;12.40;99.90;;;;;;7377158;19;20325;-75
2022/10/28 02:35:43;;;;;;;4.32;3.90;;;12.40;99.90;;;;;;7377075;19;20699;-75
2022/10/28 02:38:11;;;;;;;3.20;2.90;;;12.50;99.90;;;;;;7376352;19;21309;-75
2022/10/28 02:40:37;;;;;;;3.88;3.25;;;12.40;99.90;;;;;;7377854;19;20313;-75
2022/10/28 02:43:04;;;;;;;4.45;3.60;;;12.50;99.90;;;;;;7377256;19;20885;-75
2022/10/28 02:45:40;;;;;;;3.53;3.22;;;12.50;99.90;;;;;;7378386;19;20352;-75
2022/10/28 02:48:20;;;;;;;3.20;2.90;;;12.50;99.90;;;;;;7376916;19;20305;-75
2022/10/28 02:50:49;;;;;;;3.70;3.10;;;12.50;99.90;;;;;;7275625;19;2004405;-75
2022/10/28 02:53:37;;;;;;;4.43;2.87;;;12.60;99.90;;;;;;7377573;19;20345;-75
2022/10/28 02:56:03;;;;;;;5.47;3.72;;;12.60;99.90;;;;;;7377096;19;20324;-75
2022/10/28 02:58:29;;;;;;;3.83;3.20;;;12.60;99.90;;;;;;7378725;19;20464;-75
2022/10/28 03:00:55;;;;;;;3.88;3.50;;;12.60;99.90;;;;;;7377778;19;20323;-75
2022/10/28 03:03:20;;;;;;;3.50;3.20;;;12.60;99.90;;;;;;7377008;19;20329;-75
2022/10/28 03:05:46;;;;;;;3.65;3.20;;;12.60;99.90;;;;;;7377629;19;20345;-75
2022/10/28 03:08:11;;;;;;;3.57;3.20;;;12.60;99.90;;;;;;7376705;19;20915;-75
2022/10/28 03:10:39;;;;;;;3.83;3.47;;;12.60;99.90;;;;;;7376166;19;20308;-75
2022/10/28 03:13:04;;;;;;;3.60;3.30;;;12.60;99.90;;;;;;7375662;19;20352;-75
2022/10/28 03:15:30;;;;;;;3.90;3.40;;;12.60;99.90;;;;;;7377049;19;20345;-75
2022/10/28 03:17:56;;;;;;;3.40;3.00;;;12.60;99.90;;;;;;7376947;19;20862;-75
2022/10/28 03:20:21;;;;;;;4.85;3.38;;;12.60;99.90;;;;;;7378533;19;20332;-75
2022/10/28 03:22:47;;;;;;;3.53;3.00;;;12.50;99.90;;;;;;7377353;19;20324;-75
2022/10/28 03:25:12;;;;;;;3.60;3.30;;;12.50;99.90;;;;;;7376432;19;21266;-76
2022/10/28 03:27:39;;;;;;;3.33;3.00;;;12.50;99.90;;;;;;7379435;19;20368;-75
2022/10/28 03:30:05;;;;;;;3.13;2.83;;;12.50;99.90;;;;;;7376166;19;20415;-75
2022/10/28 03:32:31;;;;;;;5.40;4.05;;;12.50;99.90;;;;;;7375835;19;20438;-75
2022/10/28 03:34:56;;;;;;;3.95;3.63;;;12.50;99.90;;;;;;7376243;19;20328;-75
2022/10/28 03:37:22;;;;;;;6.53;4.30;;;12.50;99.90;;;;;;7376892;19;20325;-75
2022/10/28 03:39:48;;;;;;;5.10;4.60;;;12.40;99.90;;;;;;7374507;19;20862;-75
2022/10/28 03:42:13;;;;;;;6.13;4.57;;;12.30;99.90;;;;;;7375267;19;20315;-75
2022/10/28 03:44:39;;;;;;;3.80;3.30;;;12.20;99.90;;;;;;7375206;19;20312;-75
2022/10/28 03:47:04;;;;;;;3.60;3.27;;;12.20;99.90;;;;;;7376532;19;20652;-75
2022/10/28 03:49:30;;;;;;;3.33;3.03;;;12.20;99.90;;;;;;7376439;19;20352;-75
2022/10/28 03:51:55;;;;;;;3.63;3.33;;;12.30;99.90;;;;;;7377062;19;20331;-75
2022/10/28 03:54:21;;;;;;;3.37;2.90;;;12.30;99.90;;;;;;7375846;19;20328;-75
2022/10/28 03:56:46;;;;;;;3.13;2.80;;;12.30;99.90;;;;;;7374923;19;20323;-75
2022/10/28 03:59:12;;;;;;;3.13;2.87;;;12.40;99.90;;;;;;7375630;19;21158;-75
2022/10/28 04:01:37;;;;;;;3.40;3.10;;;12.30;99.90;;;;;;7375364;19;20978;-75
2022/10/28 04:04:03;;;;;;;3.50;2.97;;;12.30;99.90;;;;;;7374551;19;20331;-75
2022/10/28 04:06:29;;;;;;;3.40;3.00;;;12.40;99.90;;;;;;7376590;19;20455;-75
2022/10/28 04:08:54;;;;;;;3.37;3.07;;;12.40;99.90;;;;;;7375316;19;20324;-75
2022/10/28 04:11:20;;;;;;;3.40;3.08;;;12.30;99.90;;;;;;7375483;19;20317;-75
2022/10/28 04:13:45;;;;;;;2.97;2.70;;;12.30;99.90;;;;;;7375643;19;20729;-75
2022/10/28 04:16:11;;;;;;;3.30;3.00;;;12.20;99.90;;;;;;7375499;19;20308;-75
2022/10/28 04:18:37;;;;;;;2.90;2.40;;;12.20;99.90;;;;;;7373542;19;20697;-75
2022/10/28 04:21:02;;;;;;;4.90;3.10;;;12.20;99.90;;;;;;7375645;19;20320;-75
2022/10/28 04:23:28;;;;;;;4.68;3.38;;;12.20;99.90;;;;;;7374010;19;20345;-75
2022/10/28 04:25:53;;;;;;;3.43;2.90;;;12.10;99.90;;;;;;7375761;19;20317;-75
2022/10/28 04:28:20;;;;;;;3.40;3.10;;;12.10;99.90;;;;;;7374975;19;20771;-75
2022/10/28 04:30:46;;;;;;;3.50;3.03;;;12.00;99.90;;;;;;7375124;19;20320;-75
2022/10/28 04:33:12;;;;;;;3.25;2.95;;;12.00;99.90;;;;;;7375348;19;21161;-75
2022/10/28 04:35:38;;;;;;;3.93;2.90;;;12.00;99.90;;;;;;7374843;19;20954;-75
2022/10/28 04:38:03;;;;;;;4.40;3.15;;;11.90;99.90;;;;;;7377377;19;20866;-75
2022/10/28 04:40:29;;;;;;;3.30;3.00;;;11.90;99.90;;;;;;7378112;19;20350;-75
2022/10/28 04:42:55;;;;;;;3.50;2.90;;;11.90;99.90;;;;;;7376516;19;20328;-75
2022/10/28 04:45:20;;;;;;;2.87;2.67;;;11.90;99.90;;;;;;7374722;19;20309;-75
2022/10/28 04:47:46;;;;;;;4.37;3.10;;;11.80;99.90;;;;;;7374560;19;20345;-75
2022/10/28 04:50:11;;;;;;;4.80;3.35;;;11.90;99.90;;;;;;7375947;19;20899;-75
2022/10/28 04:52:37;;;;;;;3.50;3.00;;;11.90;99.90;;;;;;7373397;19;20320;-75
2022/10/28 04:55:02;;;;;;;3.00;2.70;;;11.90;99.90;;;;;;7375669;19;20312;-75
2022/10/28 04:57:28;;;;;;;2.88;2.67;;;11.90;99.90;;;;;;7374457;19;20349;-75
2022/10/28 04:59:54;;;;;;;3.23;2.93;;;11.80;99.90;;;;;;7372557;19;20332;-76
2022/10/28 05:02:21;;;;;;;3.20;2.90;;;11.80;99.90;;;;;;7373176;19;20316;-75
2022/10/28 05:04:47;;;;;;;4.13;3.50;;;11.80;99.90;;;;;;7376454;19;20309;-76
2022/10/28 05:07:12;;;;;;;5.80;3.90;;;11.80;99.90;;;;;;7375316;19;21218;-75
2022/10/28 05:09:38;;;;;;;4.17;3.27;;;11.70;99.90;;;;;;7373596;19;20304;-75
2022/10/28 05:12:04;;;;;;;5.03;3.97;;;11.60;99.90;;;;;;7373394;19;20380;-75
2022/10/28 05:14:29;;;;;;;3.37;3.07;;;11.60;99.90;;;;;;7375583;19;20352;-77
2022/10/28 05:16:55;;;;;;;4.50;2.88;;;11.60;99.90;;;;;;7377124;19;20682;-75
2022/10/28 05:19:21;;;;;;;3.30;3.00;;;11.60;99.90;;;;;;7373235;19;20332;-75
2022/10/28 05:21:46;;;;;;;3.08;2.70;;;11.60;99.90;;;;;;7373573;19;20361;-75
2022/10/28 05:24:12;;;;;;;3.37;3.07;;;11.60;99.90;;;;;;7373903;19;20348;-75
2022/10/28 05:26:37;;;;;;;4.05;3.30;;;11.60;99.90;;;;;;7374706;19;21089;-75
2022/10/28 05:29:03;;;;;;;3.30;2.83;;;11.70;99.90;;;;;;7372916;19;20325;-75
2022/10/28 05:31:28;;;;;;;3.57;3.10;;;11.70;99.90;;;;;;7372681;19;20351;-76
2022/10/28 05:33:54;;;;;;;3.30;3.00;;;11.70;99.90;;;;;;7373251;19;21206;-75
2022/10/28 05:36:20;;;;;;;3.10;2.80;;;11.70;99.90;;;;;;7372720;19;20336;-76
2022/10/28 05:38:45;;;;;;;4.45;3.28;;;11.70;99.90;;;;;;7371498;19;20333;-75
2022/10/28 05:41:11;;;;;;;4.27;3.27;;;11.70;99.90;;;;;;7372728;19;20308;-75
2022/10/28 05:43:37;;;;;;;3.23;2.90;;;11.60;99.90;;;;;;7374516;19;20324;-75
2022/10/28 05:46:03;;;;;;;3.42;3.10;;;11.60;99.90;;;;;;7372305;19;20655;-75
2022/10/28 05:48:29;;;;;;;4.82;3.15;;;11.60;99.90;;;;;;7372907;19;21011;-76
2022/10/28 05:50:54;;;;;;;3.60;3.00;;;11.60;99.90;;;;;;7373992;19;20316;-76
2022/10/28 05:53:20;;;;;;;4.50;3.47;;;11.60;99.90;;;;;;7371921;19;20348;-77
2022/10/28 05:55:46;;;;;;;3.30;3.00;;;11.60;99.90;;;;;;7372488;19;20368;-76
2022/10/28 05:58:11;;;;;;;4.07;3.35;;;11.50;99.90;;;;;;7370596;19;20718;-76
2022/10/28 06:00:37;;;;;;;3.90;3.43;;;11.50;99.90;;;;;;7368843;19;20316;-76
2022/10/28 06:03:08;;;;;;;4.90;3.80;;;11.60;99.90;;;;;;7370594;19;21459;-76
2022/10/28 06:05:40;;;;;;;3.50;3.20;;;11.50;99.90;;;;;;7370485;19;21258;-76
2022/10/28 06:08:06;;;;;;;4.13;3.70;;;11.50;99.90;;;;;;7369699;19;20399;-77
2022/10/28 06:10:32;;;;;;;3.03;2.60;;;11.50;99.90;;;;;;7369826;19;20534;-76
2022/10/28 06:12:57;;;;;;;4.05;3.65;;;11.50;99.90;;;;;;7371706;19;20325;-76
2022/10/28 06:15:23;;;;;;;4.13;3.73;;;11.50;99.90;;;;;;7370295;19;20435;-76
2022/10/28 06:17:49;;;;;;;5.50;3.30;;;11.40;99.90;;;;;;7370526;19;20865;-76
2022/10/28 06:20:14;;;;;;;3.92;3.63;;;11.40;99.90;;;;;;7369415;19;20320;-76
2022/10/28 06:23:06;;;;;;;3.67;3.23;;;11.40;99.90;;;;;;7369965;19;20331;-76
2022/10/28 06:25:32;;;;;;;3.78;3.20;;;11.40;99.90;;;;;;7267840;19;2019875;-76
2022/10/28 06:27:58;;;;;;;3.93;3.30;;;11.40;99.90;;;;;;7370210;19;20325;-76
2022/10/28 06:30:26;;;;;;;3.47;3.17;;;11.40;99.90;;;;;;7370271;19;21139;-76
2022/10/28 06:32:52;;;;;;;3.90;3.40;;;11.40;99.90;;;;;;7370350;19;20328;-76
2022/10/28 06:35:18;;;;;;;3.20;2.90;;;11.40;99.90;;;;;;7370447;19;20679;-76
2022/10/28 06:37:43;;;;;;;4.23;3.20;;;11.50;99.90;;;;;;7370111;19;20388;-76
2022/10/28 06:40:09;;;;;;;3.30;3.00;;;11.50;99.90;;;;;;7370904;19;20329;-76
2022/10/28 06:42:34;;;;;;;3.55;3.20;;;11.50;99.90;;;;;;7375051;19;20304;-76
2022/10/28 06:45:00;;;;;;;3.30;3.00;;;11.60;99.90;;;;;;7378178;19;20343;-76
2022/10/28 06:47:26;;;;;;;3.30;3.00;;;11.60;99.90;;;;;;7378938;19;20359;-76
2022/10/28 06:49:51;;;;;;;3.22;2.92;;;11.50;99.90;;;;;;7378770;19;20317;-76
2022/10/28 06:52:17;;;;;;;4.13;3.00;;;11.60;99.90;;;;;;7377336;19;20325;-76
2022/10/28 06:54:42;;;;;;;3.90;3.33;;;11.60;99.90;;;;;;7379726;19;20328;-76
2022/10/28 06:57:11;;;;;;;3.70;3.28;;;11.70;99.90;;;;;;7379153;19;21211;-76
2022/10/28 06:59:37;;;;;;;3.40;3.10;;;11.60;99.90;;;;;;7379940;19;20354;-76
2022/10/28 07:02:02;;;;;;;3.88;3.58;;;11.70;99.90;;;;;;7378903;19;20312;-76
2022/10/28 07:04:28;;;;;;;3.67;3.00;;;11.70;99.90;;;;;;7378305;19;20361;-76
2022/10/28 07:06:56;;;;;;;5.17;3.20;;;11.70;99.90;;;;;;7379068;19;20341;-76
2022/10/28 07:09:22;;;;;;;3.40;3.10;;;11.80;99.90;;;;;;7377476;19;20348;-75
2022/10/28 07:11:48;;;;;;;3.80;3.50;;;11.70;99.90;;;;;;7377895;19;20328;-76
2022/10/28 07:14:13;;;;;;;3.72;3.38;;;11.80;99.90;;;;;;7376782;19;20340;-76
2022/10/28 07:16:40;;;;;;;4.03;3.63;;;11.80;99.90;;;;;;7378555;19;20325;-76
2022/10/28 07:19:06;;;;;;;4.68;4.28;;;11.90;99.90;;;;;;7378072;19;20328;-76
2022/10/28 07:21:31;;;;;;;4.17;3.63;;;12.00;99.90;;;;;;7376772;19;20340;-76
2022/10/28 07:23:57;;;;;;;4.63;4.22;;;12.00;99.90;;;;;;7376974;19;20312;-76
2022/10/28 07:26:23;;;;;;;4.05;3.70;;;12.10;99.90;;;;;;7379139;19;20332;-76
2022/10/28 07:28:48;;;;;;;6.57;4.93;;;12.20;99.90;;;;;;7377393;19;20324;-76
2022/10/28 07:31:14;;;;;;;4.75;4.15;;;12.40;99.90;;;;;;7378447;19;20342;-76
2022/10/28 07:33:39;;;;;;;5.75;4.40;;;12.50;99.90;;;;;;7376681;19;20301;-76
2022/10/28 07:36:05;;;;;;;5.53;4.50;;;12.60;99.90;;;;;;7376707;19;20316;-75
2022/10/28 07:38:31;;;;;;;7.80;5.35;;;12.70;99.90;;;;;;7374983;19;20336;-75
2022/10/28 07:40:56;;;;;;;6.07;4.70;;;12.80;99.90;;;;;;7375867;19;20992;-75
2022/10/28 07:43:22;;;;;;;7.68;4.93;;;12.90;99.90;;;;;;7376215;19;20321;-75
2022/10/28 07:45:53;;;;;;;7.97;5.00;;;13.20;99.90;;;;;;7376448;19;20301;-76
2022/10/28 07:48:19;;;;;;;7.18;6.15;;;13.30;99.90;;;;;;7377030;19;20325;-75
2022/10/28 07:50:44;;;;;;;6.03;5.43;;;13.40;99.90;;;;;;7376282;19;20340;-75
2022/10/28 07:53:10;;;;;;;8.60;5.68;;;13.50;99.90;;;;;;7372998;19;20321;-75
2022/10/28 07:55:36;;;;;;;4.47;3.73;;;13.60;99.90;;;;;;7376193;19;20661;-75
2022/10/28 07:58:01;;;;;;;6.10;4.60;;;13.70;99.90;;;;;;7375757;19;20322;-75
2022/10/28 08:00:27;;;;;;;6.85;5.10;;;13.80;99.90;;;;;;7374614;19;20364;-76
2022/10/28 08:02:52;;;;;;;5.73;4.73;;;13.90;99.90;;;;;;7375339;19;20331;-76
2022/10/28 08:05:18;;;;;;;8.93;5.30;;;14.00;99.90;;;;;;7374953;19;20320;-75
2022/10/28 08:07:45;;;;;;;5.35;4.43;;;14.00;99.90;;;;;;7374129;19;20850;-75
2022/10/28 08:10:11;;;;;;;6.95;4.95;;;14.10;99.90;;;;;;7374972;19;20327;-75
2022/10/28 08:12:36;;;;;;;7.17;5.57;;;14.30;99.90;;;;;;7376932;19;20825;-75
2022/10/28 08:15:02;;;;;;;7.70;5.65;;;14.30;99.90;;;;;;7375550;19;20316;-76
2022/10/28 08:17:28;;;;;;;5.68;4.53;;;14.50;99.90;;;;;;7373017;19;20341;-76
2022/10/28 08:19:53;;;;;;;7.88;5.18;;;14.50;99.90;;;;;;7372655;19;20317;-76
2022/10/28 08:22:19;;;;;;;7.10;4.90;;;14.60;99.90;;;;;;7375057;19;20418;-76
2022/10/28 08:24:44;;;;;;;5.17;4.43;;;14.70;99.90;;;;;;7374710;19;20673;-76
2022/10/28 08:27:10;;;;;;;7.93;4.70;;;14.80;99.90;;;;;;7373630;19;20309;-76
2022/10/28 08:29:36;;;;;;;5.25;4.50;;;14.90;99.90;;;;;;7373302;19;20348;-76
2022/10/28 08:32:01;;;;;;;6.60;5.23;;;15.10;99.90;;;;;;7373461;19;20335;-75
2022/10/28 08:34:28;;;;;;;7.40;4.90;;;15.20;99.90;;;;;;7374233;19;20336;-76
2022/10/28 08:36:55;;;;;;;6.55;5.25;;;15.30;99.90;;;;;;7369613;19;20325;-76
2022/10/28 08:39:20;;;;;;;6.77;5.23;;;15.40;99.90;;;;;;7372469;19;20392;-76
2022/10/28 08:41:47;;;;;;;6.28;4.65;;;15.50;99.90;;;;;;7373443;19;20392;-76
2022/10/28 08:44:38;;;;;;;8.85;5.05;;;15.60;99.90;;;;;;7373719;19;20356;-76
2022/10/28 08:47:19;;;;;;;6.80;5.47;;;15.80;99.90;;;;;;7272235;19;2004762;-75
2022/10/28 08:49:45;;;;;;;6.05;5.22;;;15.90;99.90;;;;;;7269586;19;2004393;-76
2022/10/28 08:52:29;;;;;;;7.27;4.97;;;16.00;99.90;;;;;;7374051;19;20400;-76
2022/10/28 08:55:07;;;;;;;5.72;4.60;;;16.10;99.90;;;;;;7270930;19;2004366;-75
2022/10/28 08:57:38;;;;;;;6.88;4.47;;;16.10;99.90;;;;;;7373992;19;20352;-76
2022/10/28 09:00:18;;;;;;;6.25;4.07;;;16.20;99.90;;;;;;7374061;19;20335;-75
2022/10/28 09:02:51;;;;;;;5.50;4.53;;;16.20;99.90;;;;;;7371605;19;20870;-76
2022/10/28 09:05:22;;;;;;;5.97;4.40;;;16.20;99.90;;;;;;7270442;19;2004531;-76
2022/10/28 09:07:48;;;;;;;5.22;4.00;;;16.40;99.90;;;;;;7373399;19;20332;-76
2022/10/28 09:10:15;;;;;;;5.10;3.80;;;16.40;99.90;;;;;;7373524;19;20724;-76
2022/10/28 09:12:52;;;;;;;5.30;4.23;;;16.60;99.90;;;;;;7375277;19;20351;-76
2022/10/28 09:15:32;;;;;;;5.13;3.90;;;16.70;99.90;;;;;;7272115;19;2020001;-77
2022/10/28 09:18:04;;;;;;;4.90;4.03;;;16.70;99.90;;;;;;7375838;19;20343;-76
2022/10/28 09:20:56;;;;;;;5.75;4.18;;;16.80;99.90;;;;;;7381703;19;20340;-78
2022/10/28 09:23:29;;;;;;;6.07;4.05;;;17.00;99.90;;;;;;7277304;19;2008393;-76
2022/10/28 09:26:23;;;;;;;5.45;4.05;;;17.10;99.90;;;;;;7375686;19;20323;-76
2022/10/28 09:29:16;;;;;;;7.82;4.20;;;17.30;99.90;;;;;;7272983;19;2004330;-76
2022/10/28 09:31:46;;;;;;;5.38;3.63;;;17.40;99.90;;;;;;7374642;19;20338;-76
2022/10/28 09:34:24;;;;;;;4.68;3.45;;;17.50;99.90;;;;;;7375085;19;20352;-76
2022/10/28 09:37:14;;;;;;;5.00;3.65;;;17.60;99.90;;;;;;7273558;19;2004412;-78
2022/10/28 09:39:45;;;;;;;5.72;3.78;;;17.80;99.90;;;;;;7373386;19;20680;-76
2022/10/28 09:42:16;;;;;;;4.60;3.30;;;18.00;99.90;;;;;;7373090;19;20399;-76
2022/10/28 09:44:44;;;;;;;6.00;4.00;;;18.20;99.90;;;;;;7374346;19;20320;-76
2022/10/28 09:47:40;;;;;;;6.03;3.50;;;18.30;99.90;;;;;;7373384;19;20309;-76
2022/10/28 09:50:18;;;;;;;5.18;3.60;;;18.40;99.90;;;;;;7269054;19;2005205;-77
2022/10/28 09:53:13;;;;;;;4.27;3.07;;;18.40;99.90;;;;;;7269675;19;2004325;-78
2022/10/28 09:55:38;;;;;;;5.90;3.10;;;18.40;99.90;;;;;;7372662;19;20323;-78
2022/10/28 09:58:04;;;;;;;4.32;3.17;;;18.40;99.90;;;;;;7373769;19;20344;-76
2022/10/28 10:00:30;;;;;;;3.60;2.92;;;18.30;99.90;;;;;;7372759;19;20404;-75
2022/10/28 10:02:59;;;;;;;6.07;3.10;;;18.20;99.90;;;;;;7373990;19;20320;-78
2022/10/28 10:05:24;;;;;;;3.05;2.67;;;18.20;99.90;;;;;;7376733;19;20345;-77
2022/10/28 10:07:52;;;;;;;6.43;2.90;;;18.20;99.90;;;;;;7376032;19;20340;-78
2022/10/28 10:10:22;;;;;;;3.67;2.80;;;18.30;99.90;;;;;;7373863;19;20910;-77
2022/10/28 10:12:48;;;;;;;5.47;3.07;;;18.40;99.90;;;;;;7371086;19;20324;-77
2022/10/28 10:15:18;;;;;;;4.87;2.90;;;18.60;99.90;;;;;;7372006;19;20328;-77
2022/10/28 10:17:44;;;;;;;3.53;3.03;;;18.80;99.90;;;;;;7376151;19;20332;-77
2022/10/28 10:20:12;;;;;;;4.32;3.17;;;18.90;99.90;;;;;;7377304;19;20891;-79
2022/10/28 10:22:41;;;;;;;7.83;3.20;;;19.10;99.90;;;;;;7377291;19;20438;-78
2022/10/28 10:25:25;;;;;;;4.28;2.97;;;19.20;99.90;;;;;;7379035;19;20304;-78
2022/10/28 10:27:51;;;;;;;5.05;3.25;;;19.30;99.90;;;;;;7277761;19;2004152;-79
2022/10/28 10:30:38;;;;;;;3.75;3.00;;;19.30;99.90;;;;;;7378827;19;20317;-80
2022/10/28 10:33:04;;;;;;;5.28;3.17;;;19.50;99.90;;;;;;7378981;19;25424;-77
2022/10/28 10:35:31;;;;;;;3.08;2.78;;;19.50;99.90;;;;;;7384252;19;20424;-78
2022/10/28 10:37:57;;;;;;;6.47;3.37;;;19.70;99.90;;;;;;7380938;19;20312;-80
2022/10/28 10:40:25;;;;;;;3.47;2.90;;;19.80;99.90;;;;;;7386183;19;20331;-77
2022/10/28 10:42:51;;;;;;;3.35;2.80;;;19.90;99.90;;;;;;7385744;19;20316;-77
2022/10/28 10:45:24;;;;;;;5.13;3.17;;;20.00;99.90;;;;;;7388825;19;20320;-77
2022/10/28 10:48:13;;;;;;;4.70;2.70;;;20.20;99.90;;;;;;7390087;19;20336;-78
2022/10/28 10:50:38;;;;;;;4.25;2.80;;;20.30;99.90;;;;;;7390127;19;20301;-77
2022/10/28 10:53:04;;;;;;;5.30;2.90;;;20.50;99.90;;;;;;7390119;19;20465;-76
2022/10/28 10:55:35;;;;;;;4.00;2.72;;;20.70;99.90;;;;;;7392824;19;20343;-79
2022/10/28 10:58:01;;;;;;;3.72;2.90;;;20.70;99.90;;;;;;7392003;19;20382;-84
2022/10/28 11:00:36;;;;;;;3.97;3.03;;;20.90;99.90;;;;;;7386073;19;20353;-78
2022/10/28 11:03:03;;;;;;;6.22;2.83;;;21.00;99.90;;;;;;7387692;19;20742;-77
2022/10/28 11:05:29;;;;;;;3.58;2.50;;;21.10;99.90;;;;;;7387887;19;20345;-76
2022/10/28 11:07:54;;;;;;;4.43;2.80;;;21.30;99.90;;;;;;7388664;19;20699;-77
2022/10/28 11:10:22;;;;;;;4.90;2.97;;;21.50;99.90;;;;;;7389189;19;20344;-78
2022/10/28 11:13:03;;;;;;;3.77;2.83;;;21.70;99.90;;;;;;7389723;19;20335;-79
2022/10/28 11:15:29;;;;;;;3.97;3.00;;;21.80;99.90;;;;;;7388340;19;20344;-77
2022/10/28 11:18:10;;;;;;;4.00;2.50;;;21.90;99.90;;;;;;7388698;19;20352;-77
2022/10/28 11:20:54;;;;;;;5.55;2.90;;;22.00;99.90;;;;;;7387427;19;20304;-77
2022/10/28 11:23:34;;;;;;;6.18;2.88;;;22.10;99.90;;;;;;7284842;19;2004664;-79
2022/10/28 11:26:07;;;;;;;3.85;2.70;;;22.10;99.90;;;;;;7389339;19;20866;-76
2022/10/28 11:28:48;;;;;;;2.97;2.47;;;22.00;99.90;;;;;;7386990;19;21577;-78
2022/10/28 11:31:47;;;;;;;6.00;2.80;;;22.10;99.90;;;;;;7388238;19;20309;-78
2022/10/28 11:34:44;;;;;;;4.10;2.60;;;22.10;99.90;;;;;;7181693;19;2018802;-81
2022/10/28 11:37:33;;;;;;;3.97;2.70;;;22.10;99.90;;;;;;7285559;19;2004493;-76
2022/10/28 11:40:15;;;;;;;4.82;2.65;;;22.10;99.90;;;;;;7278815;19;2019120;-77
2022/10/28 11:43:02;;;;;;;8.57;3.10;;;22.10;99.90;;;;;;7386005;19;20974;-80
2022/10/28 11:45:41;;;;;;;4.13;2.60;;;22.00;99.90;;;;;;7285230;19;2006133;-77
2022/10/28 11:48:44;;;;;;;3.80;2.20;;;22.10;99.90;;;;;;7383828;19;20332;-75
2022/10/28 11:51:34;;;;;;;3.70;2.50;;;22.20;99.90;;;;;;7280144;19;2004136;-79
2022/10/28 11:54:13;;;;;;;4.45;2.67;;;22.70;99.90;;;;;;7275989;19;2019903;-78
2022/10/28 11:56:44;;;;;;;3.10;2.70;;;23.00;99.90;;;;;;7375652;19;20297;-78
2022/10/28 11:59:28;;;;;;;5.10;3.00;;;23.10;99.90;;;;;;7373435;19;20313;-80
2022/10/28 12:02:12;;;;;;;4.23;2.70;;;23.10;99.90;;;;;;7274065;19;2020010;-81
2022/10/28 12:04:38;;;;;;;6.07;3.20;;;23.20;99.90;;;;;;7376278;19;20315;-77
2022/10/28 12:07:28;;;;;;;7.65;3.08;;;23.00;99.90;;;;;;7379800;19;20321;-81
2022/10/28 12:10:18;;;;;;;4.40;3.00;;;23.00;99.90;;;;;;7276203;19;2004667;-78
2022/10/28 12:13:02;;;;;;;4.10;2.97;;;22.90;99.90;;;;;;7376903;19;20340;-81
2022/10/28 12:15:39;;;;;;;3.10;2.30;;;23.10;99.90;;;;;;7274196;19;2020095;-77
2022/10/28 12:18:17;;;;;;;6.27;2.90;;;23.30;99.90;;;;;;7376514;19;20404;-81
2022/10/28 12:20:55;;;;;;;4.25;3.13;;;23.30;99.90;;;;;;7373632;19;20361;-81
2022/10/28 12:23:21;;;;;;;4.60;2.78;;;23.00;99.90;;;;;;7276210;19;2004306;-83
2022/10/28 12:25:50;;;;;;;8.00;2.95;;;23.00;99.90;;;;;;7373667;19;20347;-78
2022/10/28 12:28:32;;;;;;;4.68;2.92;;;22.90;99.90;;;;;;7375700;19;20347;-81
2022/10/28 12:30:57;;;;;;;6.40;2.97;;;23.00;99.90;;;;;;7377058;19;20336;-77
2022/10/28 12:33:27;;;;;;;8.60;3.10;;;23.00;99.90;;;;;;7374507;19;20312;-81
2022/10/28 12:36:07;;;;;;;6.50;3.00;;;23.00;99.90;;;;;;7377244;19;20304;-81
2022/10/28 12:38:35;;;;;;;6.18;3.00;;;23.00;99.90;;;;;;7375180;19;20372;-79
2022/10/28 12:41:24;;;;;;;4.13;2.33;;;22.90;99.90;;;;;;7373674;19;20364;-85
2022/10/28 12:43:57;;;;;;;5.73;3.07;;;23.00;99.90;;;;;;7271503;19;2020268;-80
2022/10/28 12:46:47;;;;;;;7.47;2.63;;;23.00;99.90;;;;;;7378373;19;20335;-80
2022/10/28 12:49:40;;;;;;;6.95;2.92;;;23.10;99.90;;;;;;7374087;19;20316;-82
2022/10/28 12:52:29;;;;;;;3.67;2.70;;;23.20;99.90;;;;;;7273782;19;2004785;-79
2022/10/28 12:55:01;;;;;;;4.25;2.42;;;23.10;99.90;;;;;;7272586;19;2004423;-81
2022/10/28 12:57:27;;;;;;;3.55;2.70;;;23.10;99.90;;;;;;7374992;19;20352;-77
2022/10/28 12:59:57;;;;;;;3.97;2.47;;;23.00;99.90;;;;;;7376381;19;20312;-79
2022/10/28 13:02:29;;;;;;;4.32;2.95;;;23.00;99.90;;;;;;7376188;19;20325;-81